createdAt,value
2022-09-11T00:01:07.298Z,15.80
2022-09-11T00:03:35.371Z,15.80
2022-09-11T00:06:03.072Z,15.80
2022-09-11T00:08:31.889Z,15.80
2022-09-11T00:11:04.251Z,15.80
2022-09-11T00:13:33.389Z,15.80
2022-09-11T00:16:01.627Z,15.80
2022-09-11T00:18:29.690Z,15.70
2022-09-11T00:20:58.208Z,15.70
2022-09-11T00:23:27.239Z,15.70
2022-09-11T00:25:54.902Z,15.70
2022-09-11T00:28:23.934Z,15.70
2022-09-11T00:30:59.510Z,15.80
2022-09-11T00:33:28.086Z,15.70
2022-09-11T00:35:58.297Z,15.80
2022-09-11T00:38:27.116Z,15.80
2022-09-11T00:40:55.483Z,15.80
2022-09-11T00:43:23.391Z,15.80
2022-09-11T00:45:54.896Z,15.80
2022-09-11T00:48:25.680Z,15.80
2022-09-11T00:50:55.702Z,15.70
2022-09-11T00:53:24.819Z,15.80
2022-09-11T00:55:54.412Z,15.80
2022-09-11T00:58:23.776Z,15.70
2022-09-11T01:00:53.286Z,15.80
2022-09-11T01:03:21.028Z,15.90
2022-09-11T01:05:50.084Z,16.00
2022-09-11T01:08:17.755Z,16.00
2022-09-11T01:10:51.401Z,16.10
2022-09-11T01:13:23.735Z,16.10
2022-09-11T01:16:03.839Z,16.10
2022-09-11T01:18:32.995Z,16.00
2022-09-11T01:21:11.547Z,16.10
2022-09-11T01:24:00.316Z,16.20
2022-09-11T01:26:38.958Z,16.20
2022-09-11T01:29:10.537Z,16.20
2022-09-11T01:31:43.035Z,16.10
2022-09-11T01:34:14.973Z,16.10
2022-09-11T01:36:44.405Z,16.00
2022-09-11T01:39:12.832Z,16.00
2022-09-11T01:41:46.004Z,16.00
2022-09-11T01:44:17.185Z,15.90
2022-09-11T01:46:46.139Z,15.90
2022-09-11T01:49:16.406Z,15.90
2022-09-11T01:51:44.119Z,15.80
2022-09-11T01:54:17.688Z,15.80
2022-09-11T01:56:48.114Z,15.80
2022-09-11T01:59:18.467Z,15.70
2022-09-11T02:01:51.095Z,15.80
2022-09-11T02:04:20.090Z,15.70
2022-09-11T02:06:49.578Z,15.70
2022-09-11T02:09:21.402Z,15.80
2022-09-11T02:11:50.866Z,15.90
2022-09-11T02:14:24.604Z,15.90
2022-09-11T02:16:53.372Z,15.90
2022-09-11T02:19:24.059Z,15.90
2022-09-11T02:21:52.040Z,15.90
2022-09-11T02:24:20.701Z,16.00
2022-09-11T02:26:50.159Z,16.00
2022-09-11T02:29:17.830Z,16.00
2022-09-11T02:31:47.601Z,16.10
2022-09-11T02:34:15.518Z,16.10
2022-09-11T02:36:54.732Z,16.10
2022-09-11T02:39:27.444Z,16.10
2022-09-11T02:42:03.523Z,16.10
2022-09-11T02:44:34.915Z,16.10
2022-09-11T02:47:08.323Z,16.00
2022-09-11T02:49:40.500Z,16.10
2022-09-11T02:52:12.759Z,16.10
2022-09-11T02:54:47.675Z,16.20
2022-09-11T02:57:19.814Z,16.20
2022-09-11T02:59:51.258Z,16.20
2022-09-11T03:02:20.296Z,16.30
2022-09-11T03:04:48.424Z,16.40
2022-09-11T03:07:16.120Z,16.40
2022-09-11T03:09:43.816Z,16.50
2022-09-11T03:12:11.603Z,16.40
2022-09-11T03:14:39.547Z,16.40
2022-09-11T03:17:07.217Z,16.50
2022-09-11T03:19:36.237Z,16.60
2022-09-11T03:22:04.087Z,16.70
2022-09-11T03:24:31.765Z,16.80
2022-09-11T03:26:59.440Z,16.90
2022-09-11T03:29:27.224Z,16.90
2022-09-11T03:31:54.934Z,16.90
2022-09-11T03:34:23.173Z,16.90
2022-09-11T03:36:52.166Z,16.90
2022-09-11T03:39:19.822Z,16.90
2022-09-11T03:41:47.563Z,16.90
2022-09-11T03:44:15.227Z,16.70
2022-09-11T03:46:42.936Z,16.70
2022-09-11T03:49:10.589Z,16.50
2022-09-11T03:51:38.258Z,16.50
2022-09-11T03:54:07.740Z,16.50
2022-09-11T03:56:35.790Z,16.50
2022-09-11T03:59:03.467Z,16.40
2022-09-11T04:01:31.135Z,16.40
2022-09-11T04:03:58.801Z,16.30
2022-09-11T04:06:26.479Z,16.30
2022-09-11T04:08:54.145Z,16.20
2022-09-11T04:11:23.455Z,16.20
2022-09-11T04:13:51.851Z,16.20
2022-09-11T04:16:20.354Z,16.20
2022-09-11T04:18:49.353Z,16.10
2022-09-11T04:21:18.266Z,16.20
2022-09-11T04:23:46.202Z,16.20
2022-09-11T04:26:15.735Z,16.30
2022-09-11T04:28:44.915Z,16.20
2022-09-11T04:31:12.946Z,16.30
2022-09-11T04:33:40.942Z,16.30
2022-09-11T04:36:10.045Z,16.30
2022-09-11T04:38:38.278Z,16.30
2022-09-11T04:41:06.698Z,16.30
2022-09-11T04:43:34.924Z,16.10
2022-09-11T04:46:04.749Z,16.00
2022-09-11T04:48:32.709Z,16.00
2022-09-11T04:51:01.513Z,15.90
2022-09-11T04:53:29.836Z,15.80
2022-09-11T04:56:04.504Z,15.80
2022-09-11T04:58:32.503Z,15.60
2022-09-11T05:01:00.199Z,15.50
2022-09-11T05:03:29.822Z,15.40
2022-09-11T05:05:57.483Z,15.40
2022-09-11T05:08:25.350Z,15.30
2022-09-11T05:10:53.118Z,15.30
2022-09-11T05:13:20.754Z,15.30
2022-09-11T05:15:48.414Z,15.20
2022-09-11T05:18:16.600Z,15.20
2022-09-11T05:20:45.596Z,15.30
2022-09-11T05:23:13.288Z,15.30
2022-09-11T05:25:40.978Z,15.30
2022-09-11T05:28:08.626Z,15.30
2022-09-11T05:30:36.272Z,15.30
2022-09-11T05:33:05.004Z,15.30
2022-09-11T05:35:32.665Z,15.40
2022-09-11T05:38:01.669Z,15.40
2022-09-11T05:40:29.341Z,15.50
2022-09-11T05:42:56.978Z,15.60
2022-09-11T05:45:24.838Z,15.60
2022-09-11T05:47:55.958Z,15.70
2022-09-11T05:50:23.838Z,15.70
2022-09-11T05:52:51.499Z,15.80
2022-09-11T05:55:20.512Z,15.80
2022-09-11T05:57:48.186Z,15.90
2022-09-11T06:00:16.186Z,16.00
2022-09-11T06:02:43.855Z,16.00
2022-09-11T06:05:11.508Z,16.20
2022-09-11T06:07:39.158Z,16.20
2022-09-11T06:10:07.391Z,16.30
2022-09-11T06:12:36.437Z,16.40
2022-09-11T06:15:04.280Z,16.50
2022-09-11T06:17:32.403Z,16.70
2022-09-11T06:20:00.057Z,16.70
2022-09-11T06:22:29.683Z,16.70
2022-09-11T06:24:58.059Z,16.80
2022-09-11T06:27:25.999Z,16.90
2022-09-11T06:29:55.425Z,17.10
2022-09-11T06:32:23.115Z,17.20
2022-09-11T06:34:50.834Z,17.20
2022-09-11T06:37:19.236Z,17.40
2022-09-11T06:39:47.029Z,17.40
2022-09-11T06:42:14.779Z,17.40
2022-09-11T06:44:42.437Z,17.40
2022-09-11T06:47:11.546Z,17.30
2022-09-11T06:49:39.200Z,17.30
2022-09-11T06:52:06.941Z,17.40
2022-09-11T06:54:34.645Z,17.40
2022-09-11T06:57:02.291Z,17.40
2022-09-11T06:59:31.215Z,17.40
2022-09-11T07:02:00.748Z,17.60
2022-09-11T07:04:29.844Z,17.60
2022-09-11T07:06:57.560Z,17.70
2022-09-11T07:09:25.261Z,17.60
2022-09-11T07:11:53.834Z,17.60
2022-09-11T07:14:21.683Z,17.60
2022-09-11T07:16:49.907Z,17.60
2022-09-11T07:19:19.064Z,17.60
2022-09-11T07:21:48.087Z,17.50
2022-09-11T07:24:15.755Z,17.50
2022-09-11T07:26:43.414Z,17.50
2022-09-11T07:29:12.659Z,17.50
2022-09-11T07:31:42.789Z,17.50
2022-09-11T07:34:11.185Z,17.60
2022-09-11T07:36:38.843Z,17.70
2022-09-11T07:39:07.960Z,17.90
2022-09-11T07:41:35.623Z,18.00
2022-09-11T07:44:04.139Z,18.10
2022-09-11T07:46:32.977Z,18.20
2022-09-11T07:49:01.950Z,18.20
2022-09-11T07:51:29.622Z,18.40
2022-09-11T07:53:57.946Z,18.50
2022-09-11T07:56:27.771Z,18.80
2022-09-11T07:58:56.324Z,19.00
2022-09-11T08:01:25.406Z,19.00
2022-09-11T08:03:54.538Z,19.00
2022-09-11T08:06:23.829Z,19.00
2022-09-11T08:08:53.281Z,19.10
2022-09-11T08:11:21.007Z,19.20
2022-09-11T08:13:51.711Z,19.20
2022-09-11T08:16:20.162Z,19.20
2022-09-11T08:18:48.088Z,19.30
2022-09-11T08:21:16.254Z,19.30
2022-09-11T08:23:44.726Z,19.40
2022-09-11T08:26:13.272Z,19.50
2022-09-11T08:28:42.828Z,19.70
2022-09-11T08:31:12.735Z,19.80
2022-09-11T08:33:40.525Z,19.80
2022-09-11T08:36:09.190Z,19.70
2022-09-11T08:38:37.338Z,19.60
2022-09-11T08:41:11.109Z,19.60
2022-09-11T08:43:44.848Z,19.40
2022-09-11T08:46:14.291Z,19.30
2022-09-11T08:48:47.322Z,19.30
2022-09-11T08:51:16.102Z,19.30
2022-09-11T08:53:46.318Z,19.20
2022-09-11T08:56:17.878Z,19.10
2022-09-11T08:58:50.315Z,19.20
2022-09-11T09:01:24.746Z,19.20
2022-09-11T09:04:05.079Z,19.30
2022-09-11T09:06:40.955Z,19.40
2022-09-11T09:09:12.825Z,19.70
2022-09-11T09:11:44.203Z,20.10
2022-09-11T09:14:20.256Z,20.70
2022-09-11T09:16:52.132Z,21.10
2022-09-11T09:19:23.273Z,21.40
2022-09-11T09:21:58.493Z,21.70
2022-09-11T09:24:28.977Z,22.00
2022-09-11T09:26:57.483Z,21.90
2022-09-11T09:29:27.191Z,21.80
2022-09-11T09:31:59.914Z,21.60
2022-09-11T09:34:28.379Z,21.30
2022-09-11T09:36:58.237Z,21.30
2022-09-11T09:39:25.969Z,21.30
2022-09-11T09:42:05.499Z,21.20
2022-09-11T09:44:38.838Z,21.20
2022-09-11T09:47:12.060Z,21.10
2022-09-11T09:49:39.950Z,21.50
2022-09-11T09:52:13.592Z,21.90
2022-09-11T09:54:41.263Z,22.40
2022-09-11T09:57:10.805Z,22.80
2022-09-11T09:59:45.499Z,22.60
2022-09-11T10:02:30.682Z,22.40
2022-09-11T10:05:06.681Z,22.10
2022-09-11T10:07:34.515Z,21.70
2022-09-11T10:10:03.881Z,21.50
2022-09-11T10:12:32.220Z,21.50
2022-09-11T10:15:01.372Z,21.40
2022-09-11T10:17:35.144Z,21.40
2022-09-11T10:20:18.459Z,21.50
2022-09-11T10:22:46.552Z,21.50
2022-09-11T10:25:15.205Z,21.50
2022-09-11T10:27:50.419Z,21.40
2022-09-11T10:30:31.472Z,21.60
2022-09-11T10:33:03.681Z,21.40
2022-09-11T10:35:32.638Z,21.30
2022-09-11T10:38:01.827Z,21.20
2022-09-11T10:40:30.990Z,20.90
2022-09-11T10:42:58.725Z,20.80
2022-09-11T10:45:26.595Z,20.60
2022-09-11T10:47:54.365Z,20.50
2022-09-11T10:50:25.259Z,20.30
2022-09-11T10:52:59.891Z,20.10
2022-09-11T10:55:28.731Z,19.90
2022-09-11T10:58:00.194Z,19.70
2022-09-11T11:00:28.575Z,19.50
2022-09-11T11:02:57.120Z,19.40
2022-09-11T11:05:29.889Z,19.20
2022-09-11T11:08:04.107Z,19.20
2022-09-11T11:10:36.997Z,19.10
2022-09-11T11:13:13.334Z,19.20
2022-09-11T11:15:57.536Z,19.30
2022-09-11T11:18:35.564Z,19.50
2022-09-11T11:21:09.196Z,19.70
2022-09-11T11:23:56.406Z,19.70
2022-09-11T11:26:33.354Z,19.80
2022-09-11T11:29:08.821Z,20.00
2022-09-11T11:31:45.904Z,20.20
2022-09-11T11:34:22.897Z,20.40
2022-09-11T11:36:56.195Z,20.50
2022-09-11T11:39:25.146Z,20.70
2022-09-11T11:41:59.605Z,21.10
2022-09-11T11:44:30.163Z,21.60
2022-09-11T11:47:00.470Z,22.30
2022-09-11T11:49:29.072Z,22.60
2022-09-11T11:52:06.023Z,22.80
2022-09-11T11:54:37.691Z,22.60
2022-09-11T11:57:10.327Z,22.60
2022-09-11T11:59:43.069Z,22.60
2022-09-11T12:02:16.807Z,22.60
2022-09-11T12:04:46.947Z,22.70
2022-09-11T12:07:19.143Z,22.70
2022-09-11T12:09:49.349Z,22.80
2022-09-11T12:12:18.037Z,22.80
2022-09-11T12:14:50.064Z,22.60
2022-09-11T12:17:19.311Z,22.50
2022-09-11T12:20:07.937Z,22.50
2022-09-11T12:22:39.000Z,22.70
2022-09-11T12:25:27.379Z,23.10
2022-09-11T12:28:10.569Z,23.30
2022-09-11T12:30:53.586Z,23.60
2022-09-11T12:33:36.158Z,23.80
2022-09-11T12:36:06.443Z,24.20
2022-09-11T12:38:37.969Z,24.40
2022-09-11T12:41:09.151Z,24.50
2022-09-11T12:43:48.710Z,24.40
2022-09-11T12:46:35.551Z,24.50
2022-09-11T12:49:22.141Z,24.70
2022-09-11T12:51:55.121Z,24.60
2022-09-11T12:54:24.821Z,24.60
2022-09-11T12:56:59.315Z,24.70
2022-09-11T12:59:31.057Z,25.20
2022-09-11T13:01:59.055Z,25.70
2022-09-11T13:04:28.442Z,26.20
2022-09-11T13:06:58.625Z,26.80
2022-09-11T13:09:27.820Z,27.20
2022-09-11T13:11:56.533Z,27.50
2022-09-11T13:14:39.077Z,27.40
2022-09-11T13:17:14.762Z,27.60
2022-09-11T13:19:42.435Z,28.10
2022-09-11T13:22:24.008Z,28.30
2022-09-11T13:24:52.380Z,28.00
2022-09-11T13:27:24.526Z,27.80
2022-09-11T13:29:52.919Z,27.40
2022-09-11T13:32:22.269Z,27.40
2022-09-11T13:34:51.262Z,27.20
2022-09-11T13:37:27.115Z,27.10
2022-09-11T13:39:54.893Z,27.00
2022-09-11T13:42:25.626Z,26.80
2022-09-11T13:44:54.778Z,27.00
2022-09-11T13:47:24.514Z,27.20
2022-09-11T13:49:52.972Z,26.90
2022-09-11T13:52:22.612Z,26.70
2022-09-11T13:54:51.678Z,26.60
2022-09-11T13:57:20.836Z,26.70
2022-09-11T13:59:50.064Z,26.80
2022-09-11T14:02:23.582Z,26.80
2022-09-11T14:04:53.347Z,27.20
2022-09-11T14:07:22.472Z,27.70
2022-09-11T14:09:51.499Z,28.10
2022-09-11T14:12:20.205Z,28.60
2022-09-11T14:14:51.243Z,28.50
2022-09-11T14:17:18.975Z,28.70
2022-09-11T14:19:46.927Z,28.40
2022-09-11T14:22:16.770Z,28.50
2022-09-11T14:24:52.198Z,28.70
2022-09-11T14:27:37.203Z,29.00
2022-09-11T14:30:19.761Z,29.00
2022-09-11T14:32:47.416Z,29.20
2022-09-11T14:35:15.070Z,29.20
2022-09-11T14:37:45.674Z,29.40
2022-09-11T14:40:15.855Z,29.30
2022-09-11T14:42:43.899Z,28.90
2022-09-11T14:45:12.260Z,28.30
2022-09-11T14:47:39.991Z,28.00
2022-09-11T14:50:11.985Z,27.50
2022-09-11T14:52:40.182Z,27.00
2022-09-11T14:55:13.886Z,26.80
2022-09-11T14:57:41.565Z,26.60
2022-09-11T15:00:11.181Z,26.30
2022-09-11T15:02:39.116Z,26.10
2022-09-11T15:05:07.813Z,25.70
2022-09-11T15:07:36.383Z,25.60
2022-09-11T15:10:04.104Z,25.30
2022-09-11T15:12:33.119Z,25.00
2022-09-11T15:15:00.923Z,24.90
2022-09-11T15:17:30.457Z,24.80
2022-09-11T15:19:59.410Z,24.70
2022-09-11T15:22:27.207Z,24.60
2022-09-11T15:24:56.500Z,24.50
2022-09-11T15:27:25.102Z,24.50
2022-09-11T15:29:54.288Z,24.40
2022-09-11T15:32:22.077Z,24.40
2022-09-11T15:34:50.463Z,24.30
2022-09-11T15:37:18.336Z,24.20
2022-09-11T15:39:46.105Z,24.00
2022-09-11T15:42:13.796Z,23.80
2022-09-11T15:44:41.494Z,23.60
2022-09-11T15:47:11.391Z,23.50
2022-09-11T15:49:40.291Z,23.30
2022-09-11T15:52:08.040Z,23.30
2022-09-11T15:54:35.809Z,23.00
2022-09-11T15:57:03.553Z,22.90
2022-09-11T15:59:31.266Z,22.90
2022-09-11T16:01:59.177Z,22.80
2022-09-11T16:04:31.769Z,22.80
2022-09-11T16:06:59.642Z,22.70
2022-09-11T16:09:28.454Z,22.70
2022-09-11T16:11:56.635Z,22.70
2022-09-11T16:14:25.050Z,22.70
2022-09-11T16:16:53.407Z,22.70
2022-09-11T16:19:22.453Z,22.80
2022-09-11T16:21:53.282Z,22.80
2022-09-11T16:24:20.959Z,22.80
2022-09-11T16:26:48.702Z,22.90
2022-09-11T16:29:17.988Z,22.90
2022-09-11T16:31:45.669Z,22.90
2022-09-11T16:34:15.079Z,22.90
2022-09-11T16:36:42.741Z,22.90
2022-09-11T16:39:13.301Z,22.90
2022-09-11T16:41:41.061Z,22.80
2022-09-11T16:44:09.888Z,22.80
2022-09-11T16:46:39.647Z,22.70
2022-09-11T16:49:07.336Z,22.70
2022-09-11T16:51:35.205Z,22.60
2022-09-11T16:54:03.493Z,22.50
2022-09-11T16:56:32.572Z,22.50
2022-09-11T16:59:00.290Z,22.50
2022-09-11T17:01:29.202Z,22.40
2022-09-11T17:03:57.387Z,22.30
2022-09-11T17:06:28.120Z,22.20
2022-09-11T17:08:55.785Z,22.20
2022-09-11T17:11:23.640Z,22.10
2022-09-11T17:13:52.641Z,22.10
2022-09-11T17:16:21.525Z,21.90
2022-09-11T17:18:49.770Z,21.90
2022-09-11T17:21:17.492Z,21.70
2022-09-11T17:23:45.300Z,21.20
2022-09-11T17:26:13.941Z,21.00
2022-09-11T17:28:42.151Z,20.80
2022-09-11T17:31:13.181Z,20.70
2022-09-11T17:33:41.541Z,20.60
2022-09-11T17:36:10.062Z,20.60
2022-09-11T17:38:38.225Z,20.50
2022-09-11T17:41:07.333Z,20.50
2022-09-11T17:43:36.095Z,20.30
2022-09-11T17:46:04.370Z,20.20
2022-09-11T17:48:33.793Z,20.20
2022-09-11T17:51:02.304Z,20.20
2022-09-11T17:53:35.310Z,20.20
2022-09-11T17:56:06.287Z,20.10
2022-09-11T17:58:34.137Z,20.00
2022-09-11T18:01:02.831Z,20.00
2022-09-11T18:03:31.624Z,19.90
2022-09-11T18:06:01.404Z,19.80
2022-09-11T18:08:31.201Z,19.70
2022-09-11T18:10:59.792Z,19.60
2022-09-11T18:13:27.504Z,19.60
2022-09-11T18:15:56.165Z,19.50
2022-09-11T18:18:24.085Z,19.40
2022-09-11T18:20:53.954Z,19.30
2022-09-11T18:23:24.106Z,19.30
2022-09-11T18:25:52.166Z,19.30
2022-09-11T18:28:20.254Z,19.20
2022-09-11T18:30:49.837Z,19.20
2022-09-11T18:33:17.671Z,19.00
2022-09-11T18:35:46.571Z,19.00
2022-09-11T18:38:14.206Z,18.90
2022-09-11T18:40:43.214Z,19.00
2022-09-11T18:43:10.971Z,18.80
2022-09-11T18:45:38.660Z,18.80
2022-09-11T18:48:06.349Z,18.70
2022-09-11T18:50:36.491Z,18.70
2022-09-11T18:53:04.179Z,18.70
2022-09-11T18:55:31.912Z,18.70
2022-09-11T18:58:00.990Z,18.60
2022-09-11T19:00:29.654Z,18.60
2022-09-11T19:02:57.464Z,18.50
2022-09-11T19:05:26.289Z,18.50
2022-09-11T19:07:55.120Z,18.40
2022-09-11T19:10:22.874Z,18.30
2022-09-11T19:12:50.529Z,18.30
2022-09-11T19:15:19.584Z,18.20
2022-09-11T19:17:49.336Z,18.20
2022-09-11T19:20:17.273Z,18.20
2022-09-11T19:22:45.260Z,18.20
2022-09-11T19:25:12.899Z,18.20
2022-09-11T19:27:40.671Z,18.20
2022-09-11T19:30:09.098Z,18.10
2022-09-11T19:32:38.197Z,18.10
2022-09-11T19:35:06.130Z,18.20
2022-09-11T19:37:33.847Z,18.10
2022-09-11T19:40:01.577Z,18.00
2022-09-11T19:42:29.277Z,17.80
2022-09-11T19:44:56.950Z,17.50
2022-09-11T19:47:26.358Z,17.40
2022-09-11T19:49:55.358Z,17.30
2022-09-11T19:52:23.399Z,17.30
2022-09-11T19:54:51.316Z,17.40
2022-09-11T19:57:18.999Z,17.50
2022-09-11T19:59:46.634Z,17.60
2022-09-11T20:02:14.397Z,17.60
2022-09-11T20:04:42.171Z,17.70
2022-09-11T20:07:11.343Z,17.70
2022-09-11T20:09:40.239Z,17.80
2022-09-11T20:12:08.097Z,17.80
2022-09-11T20:14:38.392Z,17.70
2022-09-11T20:17:10.299Z,17.70
2022-09-11T20:19:39.451Z,17.70
2022-09-11T20:22:07.449Z,17.70
2022-09-11T20:24:36.453Z,17.60
2022-09-11T20:27:04.165Z,17.60
2022-09-11T20:29:31.819Z,17.60
2022-09-11T20:32:00.587Z,17.50
2022-09-11T20:34:28.396Z,17.40
2022-09-11T20:36:56.957Z,17.30
2022-09-11T20:39:24.731Z,17.20
2022-09-11T20:41:53.712Z,17.20
2022-09-11T20:44:21.362Z,17.20
2022-09-11T20:46:49.047Z,17.10
2022-09-11T20:49:16.741Z,17.10
2022-09-11T20:51:44.439Z,17.10
2022-09-11T20:54:12.092Z,17.10
2022-09-11T20:56:39.736Z,17.10
2022-09-11T20:59:08.773Z,17.20
2022-09-11T21:01:36.481Z,17.50
2022-09-11T21:04:04.993Z,17.80
2022-09-11T21:06:33.559Z,18.10
2022-09-11T21:09:02.603Z,17.90
2022-09-11T21:11:30.828Z,17.70
2022-09-11T21:13:58.683Z,17.70
2022-09-11T21:16:27.768Z,17.70
2022-09-11T21:18:56.541Z,17.60
2022-09-11T21:21:25.127Z,17.90
2022-09-11T21:23:54.884Z,18.20
2022-09-11T21:26:22.539Z,18.50
2022-09-11T21:28:50.183Z,18.60
2022-09-11T21:31:17.868Z,18.70
2022-09-11T21:33:46.874Z,18.70
2022-09-11T21:36:14.543Z,18.90
2022-09-11T21:38:42.534Z,18.90
2022-09-11T21:41:10.843Z,19.00
2022-09-11T21:43:38.733Z,19.10
2022-09-11T21:46:07.526Z,19.30
2022-09-11T21:48:35.976Z,19.50
2022-09-11T21:51:09.718Z,19.50
2022-09-11T21:53:37.567Z,19.40
2022-09-11T21:56:05.451Z,19.40
2022-09-11T21:58:33.355Z,19.60
2022-09-11T22:01:03.965Z,19.70
2022-09-11T22:03:31.631Z,19.70
2022-09-11T22:05:59.303Z,19.70
2022-09-11T22:08:28.323Z,19.60
2022-09-11T22:10:55.978Z,19.40
2022-09-11T22:13:23.650Z,19.50
2022-09-11T22:15:51.506Z,19.40
2022-09-11T22:18:19.919Z,19.50
2022-09-11T22:20:47.674Z,19.40
2022-09-11T22:23:16.466Z,19.30
2022-09-11T22:25:45.562Z,19.20
2022-09-11T22:28:13.550Z,19.20
2022-09-11T22:30:42.331Z,19.00
2022-09-11T22:33:10.047Z,19.00
2022-09-11T22:35:37.775Z,18.80
2022-09-11T22:38:05.642Z,18.70
2022-09-11T22:40:33.332Z,18.70
2022-09-11T22:43:02.508Z,18.90
2022-09-11T22:45:30.249Z,18.90
2022-09-11T22:47:58.783Z,18.90
2022-09-11T22:50:26.608Z,19.10
2022-09-11T22:52:54.414Z,19.30
2022-09-11T22:55:22.143Z,19.40
2022-09-11T22:57:49.820Z,19.20
2022-09-11T23:00:19.622Z,19.10
2022-09-11T23:02:47.290Z,19.00
2022-09-11T23:05:32.448Z,18.80
2022-09-11T23:08:00.115Z,18.90
2022-09-11T23:10:27.780Z,18.90
2022-09-11T23:12:55.627Z,18.90
2022-09-11T23:15:24.652Z,19.10
2022-09-11T23:17:52.379Z,19.00
2022-09-11T23:20:20.044Z,19.10
2022-09-11T23:22:47.689Z,19.20
2022-09-11T23:25:15.404Z,19.30
2022-09-11T23:27:44.229Z,19.30
2022-09-11T23:30:12.174Z,19.20
2022-09-11T23:32:42.032Z,19.30
2022-09-11T23:35:10.167Z,19.30
2022-09-11T23:37:41.143Z,19.30
2022-09-11T23:40:11.309Z,19.30
2022-09-11T23:42:38.995Z,19.30
2022-09-11T23:45:07.480Z,19.00
2022-09-11T23:47:35.181Z,19.00
2022-09-11T23:50:04.314Z,19.10
2022-09-11T23:52:32.735Z,19.20
2022-09-11T23:55:00.402Z,19.00
2022-09-11T23:57:28.031Z,19.00
2022-09-11T23:59:55.685Z,19.10
